Time;durP1;ratioP1;P1;durP2;ratioP2;P2;SDS_P1;SDS_P2;PMS_P1;PMS_P2;Temp;Humidity;BMP_temperature;BMP_pressure;BME280_temperature;BME280_humidity;BME280_pressure;Samples;Min_cycle;Max_cycle;Signal;HPM_P1;HPM_P2
2023/03/16 00:02:04;;;;;;;1.70;1.35;;;12.50;51.10;;;;;;5088021;27;45281;-66
2023/03/16 00:04:36;;;;;;;1.73;1.40;;;12.40;51.10;;;;;;5088134;27;45297;-66
2023/03/16 00:07:03;;;;;;;2.08;1.60;;;12.40;51.20;;;;;;5087673;27;46804;-66
2023/03/16 00:09:30;;;;;;;2.03;1.45;;;12.40;51.70;;;;;;5087919;27;45252;-67
2023/03/16 00:11:57;;;;;;;2.13;1.38;;;12.40;51.10;;;;;;5087723;27;45391;-66
2023/03/16 00:14:24;;;;;;;1.42;1.20;;;12.40;51.00;;;;;;5088054;27;45473;-66
2023/03/16 00:16:52;;;;;;;1.63;1.50;;;12.40;51.10;;;;;;5087522;27;46596;-66
2023/03/16 00:19:21;;;;;;;2.17;1.17;;;12.40;51.10;;;;;;5087648;27;45200;-66
2023/03/16 00:21:50;;;;;;;1.20;1.10;;;12.30;51.00;;;;;;5087927;28;45431;-66
2023/03/16 00:24:18;;;;;;;2.38;1.40;;;12.40;51.10;;;;;;5087493;27;45338;-66
2023/03/16 00:26:45;;;;;;;2.80;1.45;;;12.30;51.00;;;;;;5087409;27;46466;-66
2023/03/16 00:29:11;;;;;;;2.05;1.20;;;12.30;51.00;;;;;;5087494;27;45254;-66
2023/03/16 00:31:38;;;;;;;1.58;1.33;;;12.30;51.00;;;;;;5087406;27;45519;-66
2023/03/16 00:34:05;;;;;;;1.80;1.27;;;12.30;51.00;;;;;;5087608;27;45279;-66
2023/03/16 00:36:32;;;;;;;1.58;1.30;;;12.30;51.00;;;;;;5087382;27;46470;-65
2023/03/16 00:39:01;;;;;;;1.42;1.10;;;12.30;51.00;;;;;;5087469;27;45268;-66
2023/03/16 00:41:28;;;;;;;1.25;1.13;;;12.20;51.10;;;;;;5087299;27;45331;-66
2023/03/16 00:43:54;;;;;;;2.13;1.27;;;12.20;51.10;;;;;;5087745;27;45364;-65
2023/03/16 00:46:25;;;;;;;1.20;1.10;;;12.20;51.00;;;;;;5087086;27;46396;-66
2023/03/16 00:48:52;;;;;;;1.55;1.27;;;12.20;51.00;;;;;;5086373;27;45309;-66
2023/03/16 00:51:19;;;;;;;1.37;1.13;;;12.20;50.90;;;;;;5087224;27;45432;-68
2023/03/16 00:53:46;;;;;;;2.03;1.23;;;12.20;50.90;;;;;;5087496;27;45297;-66
2023/03/16 00:56:14;;;;;;;1.60;1.10;;;12.20;50.90;;;;;;5087231;27;46346;-65
2023/03/16 00:58:42;;;;;;;1.95;1.30;;;12.20;50.90;;;;;;5087320;27;45192;-66
2023/03/16 01:01:09;;;;;;;1.15;1.02;;;12.10;50.90;;;;;;5087096;27;45318;-67
2023/03/16 01:03:36;;;;;;;2.03;1.23;;;12.10;50.90;;;;;;5087330;27;45391;-64
2023/03/16 01:06:05;;;;;;;1.05;1.00;;;12.10;51.00;;;;;;5086916;27;45487;-66
2023/03/16 01:08:31;;;;;;;1.33;1.00;;;12.00;51.00;;;;;;5086684;27;45405;-66
2023/03/16 01:11:03;;;;;;;1.20;1.10;;;12.10;51.00;;;;;;5087139;27;45340;-65
2023/03/16 01:13:32;;;;;;;1.92;1.30;;;12.10;51.00;;;;;;5087127;28;45180;-66
2023/03/16 01:15:59;;;;;;;2.10;1.20;;;12.10;50.90;;;;;;5086670;28;45390;-66
2023/03/16 01:18:25;;;;;;;1.37;1.03;;;12.00;50.80;;;;;;5086640;27;45249;-66
2023/03/16 01:20:53;;;;;;;1.00;0.90;;;12.00;50.90;;;;;;5086835;27;45336;-64
2023/03/16 01:23:19;;;;;;;1.47;1.20;;;12.00;50.80;;;;;;5086861;27;45306;-67
2023/03/16 01:25:52;;;;;;;1.47;1.20;;;12.00;50.90;;;;;;5086536;27;45325;-67
2023/03/16 01:28:20;;;;;;;2.17;1.35;;;12.00;50.80;;;;;;5086496;27;45285;-66
2023/03/16 01:30:48;;;;;;;1.10;0.90;;;12.00;50.80;;;;;;5086517;27;45249;-66
2023/03/16 01:33:15;;;;;;;1.02;0.93;;;11.90;50.90;;;;;;5086797;27;45334;-66
2023/03/16 01:35:42;;;;;;;1.33;1.20;;;12.00;50.80;;;;;;5086435;27;45660;-66
2023/03/16 01:38:09;;;;;;;1.43;0.97;;;12.00;50.80;;;;;;5086224;27;45210;-67
2023/03/16 01:40:36;;;;;;;1.10;1.00;;;11.90;50.70;;;;;;5086505;27;45442;-66
2023/03/16 01:43:04;;;;;;;1.15;0.95;;;11.90;50.80;;;;;;5086651;27;45534;-65
2023/03/16 01:46:07;;;;;;;1.37;1.10;;;11.90;50.80;;;;;;5086287;27;45547;-67
2023/03/16 01:48:37;;;;;;;1.40;0.90;;;11.90;50.90;;;;;;5086027;27;45534;-66
2023/03/16 01:51:04;;;;;;;1.10;1.00;;;11.90;50.80;;;;;;5086147;27;45423;-67
2023/03/16 01:53:32;;;;;;;1.47;1.00;;;11.90;50.80;;;;;;5086356;27;45407;-67
2023/03/16 01:56:00;;;;;;;1.17;1.00;;;11.90;50.80;;;;;;5086065;27;45387;-66
2023/03/16 01:58:27;;;;;;;1.20;1.10;;;11.80;50.70;;;;;;5086097;27;45314;-66
2023/03/16 02:00:54;;;;;;;1.53;0.90;;;11.90;50.80;;;;;;5086187;27;45319;-65
2023/03/16 02:03:22;;;;;;;1.13;0.90;;;11.80;50.70;;;;;;5086307;27;45586;-67
2023/03/16 02:05:51;;;;;;;1.27;0.90;;;11.80;50.70;;;;;;5085988;27;46645;-66
2023/03/16 02:08:18;;;;;;;1.40;0.90;;;11.80;50.70;;;;;;5085904;27;45374;-66
2023/03/16 02:10:45;;;;;;;1.13;0.90;;;11.80;50.70;;;;;;5085925;27;45134;-66
2023/03/16 02:13:12;;;;;;;0.90;0.77;;;11.80;50.70;;;;;;5086109;27;45621;-66
2023/03/16 02:15:39;;;;;;;1.03;1.00;;;11.80;50.70;;;;;;5085824;27;45380;-66
2023/03/16 02:18:06;;;;;;;1.00;1.00;;;11.80;50.80;;;;;;5086138;27;45351;-66
2023/03/16 02:20:37;;;;;;;0.90;0.90;;;11.70;50.60;;;;;;5085786;27;45343;-66
2023/03/16 02:23:04;;;;;;;2.00;0.90;;;11.70;50.70;;;;;;5086011;27;45412;-66
2023/03/16 02:25:35;;;;;;;0.90;0.90;;;11.70;50.70;;;;;;5085137;27;45417;-66
2023/03/16 02:28:05;;;;;;;1.37;1.00;;;11.70;50.70;;;;;;5085608;27;45325;-66
2023/03/16 02:30:35;;;;;;;1.20;1.10;;;11.70;50.70;;;;;;5085717;27;45311;-66
2023/03/16 02:33:03;;;;;;;0.87;0.80;;;11.70;50.60;;;;;;5085843;27;45241;-66
2023/03/16 02:35:30;;;;;;;1.10;0.97;;;11.70;50.60;;;;;;5085490;27;46666;-66
2023/03/16 02:37:57;;;;;;;1.23;0.80;;;11.60;50.60;;;;;;5085550;27;45382;-66
2023/03/16 02:40:25;;;;;;;0.97;0.80;;;11.60;50.70;;;;;;5085541;28;45433;-66
2023/03/16 02:42:56;;;;;;;0.70;0.70;;;11.60;50.60;;;;;;5085667;27;45352;-66
2023/03/16 02:45:23;;;;;;;1.33;1.00;;;11.60;50.70;;;;;;5085330;27;45552;-66
2023/03/16 02:47:52;;;;;;;1.57;0.97;;;11.60;50.70;;;;;;5085267;27;45211;-65
2023/03/16 02:50:19;;;;;;;1.00;0.90;;;11.60;50.70;;;;;;5085527;27;45326;-66
2023/03/16 02:52:47;;;;;;;0.80;0.80;;;11.50;50.60;;;;;;5085433;27;45443;-67
2023/03/16 02:55:14;;;;;;;1.73;0.73;;;11.50;50.60;;;;;;5085192;27;46799;-66
2023/03/16 02:57:41;;;;;;;0.90;0.80;;;11.50;50.60;;;;;;5085333;27;45364;-67
2023/03/16 03:00:15;;;;;;;2.10;0.90;;;11.50;50.70;;;;;;5085411;27;45268;-65
2023/03/16 03:02:42;;;;;;;0.97;0.80;;;11.50;50.60;;;;;;5085497;27;45430;-65
2023/03/16 03:05:11;;;;;;;0.70;0.70;;;11.40;50.70;;;;;;5085130;27;46685;-66
2023/03/16 03:07:37;;;;;;;1.27;0.90;;;11.40;50.60;;;;;;5085022;27;45279;-65
2023/03/16 03:10:05;;;;;;;0.67;0.67;;;11.40;50.70;;;;;;5085436;27;45355;-65
2023/03/16 03:12:32;;;;;;;1.00;1.00;;;11.40;50.70;;;;;;5088963;27;45310;-65
2023/03/16 03:14:59;;;;;;;1.57;0.90;;;11.40;50.80;;;;;;5088601;27;46287;-65
2023/03/16 03:17:28;;;;;;;0.90;0.87;;;11.40;50.70;;;;;;5088748;27;45256;-65
2023/03/16 03:19:56;;;;;;;0.83;0.83;;;11.40;50.70;;;;;;5088817;27;45263;-66
2023/03/16 03:22:25;;;;;;;2.20;1.10;;;11.30;50.60;;;;;;5088662;27;45319;-66
2023/03/16 03:24:52;;;;;;;2.23;1.00;;;11.30;50.60;;;;;;5088243;27;45537;-66
2023/03/16 03:27:18;;;;;;;0.97;0.90;;;11.30;50.60;;;;;;5088389;27;45357;-66
2023/03/16 03:29:45;;;;;;;0.80;0.80;;;11.30;50.60;;;;;;5088546;27;45257;-66
2023/03/16 03:32:15;;;;;;;1.33;0.80;;;11.30;50.60;;;;;;5088653;27;45338;-66
2023/03/16 03:34:42;;;;;;;1.00;0.90;;;11.30;50.60;;;;;;5088366;27;45353;-67
2023/03/16 03:37:09;;;;;;;0.90;0.83;;;11.30;50.60;;;;;;5088273;27;45326;-65
2023/03/16 03:39:39;;;;;;;2.03;0.90;;;11.30;50.60;;;;;;5088605;27;45280;-66
2023/03/16 03:42:06;;;;;;;1.23;1.10;;;11.20;50.60;;;;;;5088334;27;45367;-66
2023/03/16 03:44:34;;;;;;;1.07;1.00;;;11.20;50.60;;;;;;5088166;28;46404;-65
2023/03/16 03:47:01;;;;;;;1.30;1.00;;;11.20;50.60;;;;;;5088353;27;45307;-66
2023/03/16 03:49:28;;;;;;;2.07;1.07;;;11.20;50.70;;;;;;5088323;27;45391;-66
2023/03/16 03:51:57;;;;;;;0.97;0.70;;;11.20;50.60;;;;;;5088320;27;45415;-67
2023/03/16 03:54:24;;;;;;;1.20;1.10;;;11.20;50.70;;;;;;5088001;27;47592;-65
2023/03/16 03:56:53;;;;;;;0.90;0.90;;;11.10;50.60;;;;;;5088105;28;45359;-66
2023/03/16 03:59:19;;;;;;;1.67;0.77;;;11.10;50.60;;;;;;5088295;27;45202;-65
2023/03/16 04:01:47;;;;;;;2.30;1.00;;;11.10;50.60;;;;;;5088034;27;45369;-66
2023/03/16 04:04:14;;;;;;;1.07;0.90;;;11.10;50.60;;;;;;5087939;27;45556;-65
2023/03/16 04:06:41;;;;;;;1.40;1.03;;;11.10;50.60;;;;;;5087936;27;45365;-67
2023/03/16 04:09:08;;;;;;;1.10;1.00;;;11.10;50.50;;;;;;5087993;27;45391;-66
2023/03/16 04:11:35;;;;;;;1.23;0.90;;;11.10;50.50;;;;;;5088153;27;45374;-65
2023/03/16 04:14:03;;;;;;;1.20;1.10;;;11.10;50.60;;;;;;5087741;27;46541;-65
2023/03/16 04:16:30;;;;;;;1.60;1.27;;;11.10;51.20;;;;;;5087935;27;45233;-65
2023/03/16 04:18:57;;;;;;;2.20;1.00;;;11.00;50.60;;;;;;5087741;27;45352;-65
2023/03/16 04:21:24;;;;;;;1.70;1.10;;;11.00;50.50;;;;;;5087566;27;45262;-65
2023/03/16 04:23:53;;;;;;;1.40;1.00;;;11.00;50.60;;;;;;5086373;27;45463;-66
2023/03/16 04:26:20;;;;;;;1.20;1.10;;;11.00;50.60;;;;;;5087571;27;45387;-65
2023/03/16 04:28:47;;;;;;;1.80;1.00;;;11.00;50.60;;;;;;5087548;27;45290;-67
2023/03/16 04:31:15;;;;;;;1.43;1.20;;;11.00;50.60;;;;;;5087732;27;45340;-65
2023/03/16 04:33:42;;;;;;;1.30;1.20;;;11.00;50.60;;;;;;5087336;27;45295;-66
2023/03/16 04:36:09;;;;;;;0.97;0.93;;;11.00;50.60;;;;;;5087337;27;45327;-65
2023/03/16 04:38:36;;;;;;;1.13;0.80;;;10.90;50.60;;;;;;5087688;27;45252;-66
2023/03/16 04:41:03;;;;;;;1.23;1.07;;;10.90;50.60;;;;;;5087521;27;45344;-66
2023/03/16 04:43:33;;;;;;;1.10;1.00;;;10.90;50.50;;;;;;5087246;28;45237;-65
2023/03/16 04:46:00;;;;;;;2.00;1.30;;;10.90;50.50;;;;;;5087161;27;45320;-65
2023/03/16 04:48:28;;;;;;;2.77;0.90;;;10.90;50.50;;;;;;5087265;27;45363;-65
2023/03/16 04:50:55;;;;;;;1.50;1.00;;;10.90;50.60;;;;;;5087467;27;45250;-65
2023/03/16 04:53:22;;;;;;;1.47;0.90;;;10.90;50.60;;;;;;5087088;27;46409;-65
2023/03/16 04:55:48;;;;;;;0.90;0.90;;;10.80;50.50;;;;;;5087030;27;45338;-66
2023/03/16 04:58:15;;;;;;;1.27;0.90;;;10.80;50.60;;;;;;5084689;27;45282;-65
2023/03/16 05:00:42;;;;;;;1.37;0.83;;;10.80;50.50;;;;;;5087442;27;45328;-66
2023/03/16 05:03:10;;;;;;;1.47;1.20;;;10.80;50.50;;;;;;5086942;27;46716;-65
2023/03/16 05:05:38;;;;;;;1.53;1.03;;;10.80;50.50;;;;;;5087116;27;45371;-65
2023/03/16 05:08:05;;;;;;;1.10;0.93;;;10.80;50.50;;;;;;5087239;27;45428;-65
2023/03/16 05:10:33;;;;;;;0.80;0.80;;;10.80;50.50;;;;;;5087180;27;45294;-66
2023/03/16 05:12:59;;;;;;;3.17;1.00;;;10.80;50.50;;;;;;5087030;27;45488;-65
2023/03/16 05:15:26;;;;;;;1.93;1.20;;;10.80;50.50;;;;;;5086879;27;45354;-65
2023/03/16 05:17:54;;;;;;;2.03;1.10;;;10.70;50.50;;;;;;5087101;27;45201;-65
2023/03/16 05:20:21;;;;;;;0.83;0.83;;;10.70;50.60;;;;;;5087106;27;45500;-65
2023/03/16 05:22:49;;;;;;;1.13;1.10;;;10.70;50.50;;;;;;5086760;27;46356;-65
2023/03/16 05:25:16;;;;;;;1.03;0.97;;;10.70;50.50;;;;;;5086617;27;45379;-65
2023/03/16 05:27:43;;;;;;;1.40;1.03;;;10.70;50.50;;;;;;5087035;27;45302;-65
2023/03/16 05:30:11;;;;;;;0.93;0.80;;;10.70;50.50;;;;;;5086916;27;45493;-65
2023/03/16 05:32:39;;;;;;;1.13;1.03;;;10.70;50.50;;;;;;5086404;27;46592;-65
2023/03/16 05:35:07;;;;;;;1.10;0.87;;;10.70;50.60;;;;;;5086165;27;45453;-65
2023/03/16 05:37:36;;;;;;;1.17;1.03;;;10.60;50.50;;;;;;5086620;27;45371;-65
2023/03/16 05:40:15;;;;;;;1.33;0.93;;;10.60;50.50;;;;;;5086538;27;45392;-65
2023/03/16 05:42:43;;;;;;;1.27;0.93;;;10.60;50.50;;;;;;5086232;27;45366;-66
2023/03/16 05:45:11;;;;;;;0.67;0.60;;;10.60;50.50;;;;;;5086433;27;45350;-65
2023/03/16 05:47:38;;;;;;;1.40;0.70;;;10.60;50.50;;;;;;5086361;27;45303;-66
2023/03/16 05:50:07;;;;;;;1.20;1.10;;;10.60;50.50;;;;;;5086491;27;45284;-65
2023/03/16 05:52:34;;;;;;;1.30;1.20;;;10.60;50.50;;;;;;5085919;27;46615;-65
2023/03/16 05:55:01;;;;;;;1.70;1.10;;;10.60;50.50;;;;;;5086453;27;45189;-66
2023/03/16 05:57:30;;;;;;;1.13;1.00;;;10.60;50.50;;;;;;5086125;27;45343;-65
2023/03/16 05:59:57;;;;;;;1.13;0.80;;;10.60;50.60;;;;;;5086450;27;45357;-65
2023/03/16 06:02:24;;;;;;;1.30;1.03;;;10.60;50.50;;;;;;5085748;27;46951;-65
2023/03/16 06:04:51;;;;;;;1.50;1.10;;;10.60;50.50;;;;;;5086286;27;45366;-65
2023/03/16 06:07:18;;;;;;;1.30;1.00;;;10.60;50.50;;;;;;5085978;27;45138;-65
2023/03/16 06:09:44;;;;;;;0.87;0.80;;;10.60;50.50;;;;;;5086021;28;45315;-65
2023/03/16 06:12:12;;;;;;;0.70;0.70;;;10.50;50.50;;;;;;5085751;27;46726;-67
2023/03/16 06:14:40;;;;;;;1.10;1.00;;;10.50;51.10;;;;;;5085800;27;45375;-65
2023/03/16 06:17:07;;;;;;;1.10;1.00;;;10.50;50.50;;;;;;5085970;27;45312;-65
2023/03/16 06:19:34;;;;;;;1.33;1.13;;;10.50;50.50;;;;;;5086035;27;45472;-65
2023/03/16 06:22:01;;;;;;;1.50;1.03;;;10.50;50.50;;;;;;5085553;27;46675;-67
2023/03/16 06:24:28;;;;;;;1.30;1.20;;;10.50;50.50;;;;;;5085366;27;45365;-65
2023/03/16 06:26:55;;;;;;;3.43;1.10;;;10.50;50.50;;;;;;5085789;28;45372;-65
2023/03/16 06:29:22;;;;;;;1.47;1.17;;;10.50;50.50;;;;;;5086059;27;45419;-67
2023/03/16 06:31:51;;;;;;;1.00;1.00;;;10.50;50.50;;;;;;5085240;27;45245;-65
2023/03/16 06:34:18;;;;;;;1.10;1.00;;;10.50;50.50;;;;;;5085501;27;45402;-66
2023/03/16 06:36:45;;;;;;;1.90;1.20;;;10.50;50.50;;;;;;5085485;27;45311;-65
2023/03/16 06:39:13;;;;;;;0.97;0.90;;;10.50;50.50;;;;;;5085793;28;45420;-65
2023/03/16 06:41:41;;;;;;;1.07;0.90;;;10.50;50.40;;;;;;5085169;27;46330;-65
2023/03/16 06:44:08;;;;;;;2.30;1.10;;;10.50;50.40;;;;;;5085458;27;45228;-65
2023/03/16 06:46:35;;;;;;;0.97;0.87;;;10.50;50.40;;;;;;5084551;27;45396;-65
2023/03/16 06:49:03;;;;;;;0.87;0.87;;;10.50;50.40;;;;;;5085536;27;45408;-65
2023/03/16 06:51:30;;;;;;;1.20;1.10;;;10.50;50.40;;;;;;5084988;27;45323;-67
2023/03/16 06:53:57;;;;;;;2.43;0.90;;;10.50;50.50;;;;;;5084968;27;45360;-65
2023/03/16 06:56:24;;;;;;;1.23;1.03;;;10.50;50.40;;;;;;5085361;27;45294;-66
2023/03/16 06:58:51;;;;;;;1.63;1.20;;;10.50;50.40;;;;;;5085585;27;45325;-65
2023/03/16 07:01:17;;;;;;;1.50;1.20;;;10.50;50.40;;;;;;5084856;27;45256;-67
2023/03/16 07:03:44;;;;;;;1.27;1.17;;;10.50;50.30;;;;;;5085232;27;45260;-65
2023/03/16 07:06:13;;;;;;;2.10;0.90;;;10.50;50.30;;;;;;5085303;27;45273;-66
2023/03/16 07:08:41;;;;;;;1.60;1.00;;;10.50;50.30;;;;;;5085445;28;45321;-68
2023/03/16 07:11:08;;;;;;;1.07;0.97;;;10.60;50.40;;;;;;5084680;27;45420;-66
2023/03/16 07:13:35;;;;;;;1.07;0.97;;;10.60;50.30;;;;;;5082163;27;45367;-65
2023/03/16 07:16:02;;;;;;;1.70;1.30;;;10.60;50.30;;;;;;5085189;27;45303;-65
2023/03/16 07:18:29;;;;;;;1.40;1.10;;;10.60;50.30;;;;;;5085240;27;45287;-66
2023/03/16 07:20:56;;;;;;;1.00;0.70;;;10.60;50.30;;;;;;5084701;28;45488;-65
2023/03/16 07:23:24;;;;;;;1.43;1.10;;;10.60;50.30;;;;;;5084641;27;46509;-67
2023/03/16 07:25:51;;;;;;;1.20;1.10;;;10.60;50.30;;;;;;5084872;27;45335;-65
2023/03/16 07:28:18;;;;;;;1.07;0.80;;;10.50;50.30;;;;;;5084979;28;45301;-66
2023/03/16 07:30:45;;;;;;;1.20;1.10;;;10.60;50.40;;;;;;5084559;27;46362;-66
2023/03/16 07:33:12;;;;;;;1.00;0.80;;;10.50;50.30;;;;;;5084727;27;45355;-67
2023/03/16 07:35:40;;;;;;;1.40;1.10;;;10.50;50.30;;;;;;5084967;27;45249;-65
2023/03/16 07:38:09;;;;;;;1.40;1.00;;;10.50;50.30;;;;;;5085049;27;45322;-66
2023/03/16 07:40:38;;;;;;;1.47;1.00;;;10.50;50.40;;;;;;5084405;27;45647;-66
2023/03/16 07:43:04;;;;;;;1.07;0.90;;;10.50;50.40;;;;;;5084572;28;45340;-65
2023/03/16 07:45:31;;;;;;;1.43;0.83;;;10.60;50.40;;;;;;5084693;27;45280;-66
2023/03/16 07:47:58;;;;;;;1.00;0.83;;;10.60;50.40;;;;;;5084817;27;45300;-66
2023/03/16 07:50:25;;;;;;;1.30;0.83;;;10.60;50.40;;;;;;5084329;27;46432;-65
2023/03/16 07:52:53;;;;;;;1.63;1.20;;;10.60;50.40;;;;;;5084379;27;45414;-66
2023/03/16 07:55:20;;;;;;;2.20;1.03;;;10.60;50.40;;;;;;5084491;27;45377;-65
2023/03/16 07:57:48;;;;;;;1.17;0.93;;;10.60;50.30;;;;;;5087186;27;45299;-66
2023/03/16 08:00:16;;;;;;;0.90;0.90;;;10.60;50.30;;;;;;5087856;27;45347;-65
2023/03/16 08:02:43;;;;;;;1.67;0.70;;;10.60;50.40;;;;;;5087712;27;45201;-66
2023/03/16 08:05:10;;;;;;;1.17;0.97;;;10.60;50.30;;;;;;5087901;27;45320;-66
2023/03/16 08:07:37;;;;;;;1.67;0.90;;;10.60;50.30;;;;;;5088085;27;45587;-65
2023/03/16 08:10:05;;;;;;;0.70;0.63;;;10.70;50.30;;;;;;5085135;27;45314;-67
2023/03/16 08:12:32;;;;;;;1.80;1.30;;;10.70;50.30;;;;;;5087822;28;45362;-65
2023/03/16 08:15:00;;;;;;;0.90;0.90;;;10.70;50.30;;;;;;5087850;27;45338;-65
2023/03/16 08:17:27;;;;;;;0.90;0.87;;;10.70;50.30;;;;;;5088187;27;45388;-65
2023/03/16 08:19:54;;;;;;;1.13;1.00;;;10.60;50.30;;;;;;5087420;27;45526;-66
2023/03/16 08:22:21;;;;;;;1.13;0.93;;;10.70;50.30;;;;;;5087187;27;45422;-66
2023/03/16 08:24:49;;;;;;;1.20;0.90;;;10.70;50.30;;;;;;5087528;27;45376;-66
2023/03/16 08:27:18;;;;;;;1.30;0.90;;;10.70;50.30;;;;;;5087838;27;45199;-65
2023/03/16 08:29:45;;;;;;;1.10;1.00;;;10.70;50.30;;;;;;5087390;27;45538;-65
2023/03/16 08:32:13;;;;;;;0.70;0.70;;;10.70;50.90;;;;;;5087277;27;45331;-66
2023/03/16 08:34:40;;;;;;;1.00;0.80;;;10.80;50.30;;;;;;5087657;27;45292;-65
2023/03/16 08:37:07;;;;;;;1.20;0.90;;;10.70;50.20;;;;;;5087724;27;45295;-68
2023/03/16 08:39:35;;;;;;;0.97;0.97;;;10.80;50.30;;;;;;5087184;27;48142;-66
2023/03/16 08:42:03;;;;;;;1.03;0.93;;;10.80;50.30;;;;;;5086997;27;45348;-65
2023/03/16 08:44:29;;;;;;;1.10;1.00;;;10.80;50.30;;;;;;5087519;27;45319;-66
2023/03/16 08:46:56;;;;;;;1.10;0.90;;;10.80;50.20;;;;;;5087543;27;45370;-65
2023/03/16 08:49:26;;;;;;;0.97;0.90;;;10.80;50.20;;;;;;5086956;27;45388;-66
2023/03/16 08:51:53;;;;;;;1.00;1.00;;;10.80;50.10;;;;;;5086815;27;45401;-65
2023/03/16 08:54:19;;;;;;;0.80;0.80;;;10.90;50.10;;;;;;5087219;28;45390;-65
2023/03/16 08:56:47;;;;;;;1.00;1.00;;;10.90;50.00;;;;;;5087236;27;45223;-66
2023/03/16 08:59:13;;;;;;;0.87;0.87;;;10.90;49.90;;;;;;5086863;27;47371;-66
2023/03/16 09:01:41;;;;;;;2.03;1.00;;;10.90;49.90;;;;;;5086786;27;45387;-65
2023/03/16 09:04:08;;;;;;;0.83;0.83;;;10.90;49.90;;;;;;5087110;27;45345;-65
2023/03/16 09:06:36;;;;;;;0.80;0.80;;;11.00;49.90;;;;;;5087376;27;45262;-65
2023/03/16 09:09:03;;;;;;;1.50;0.83;;;11.00;49.80;;;;;;5085956;27;45472;-66
2023/03/16 09:11:32;;;;;;;0.90;0.87;;;11.00;49.90;;;;;;5086296;27;45304;-65
2023/03/16 09:13:59;;;;;;;1.37;1.00;;;11.00;49.80;;;;;;5086788;27;45406;-65
2023/03/16 09:16:26;;;;;;;1.10;1.00;;;11.10;49.90;;;;;;5086943;27;45319;-65
2023/03/16 09:18:54;;;;;;;1.70;0.87;;;11.10;49.80;;;;;;5086524;28;47021;-65
2023/03/16 09:21:22;;;;;;;0.97;0.90;;;11.10;49.90;;;;;;5086312;27;45371;-65
2023/03/16 09:23:50;;;;;;;3.70;1.00;;;11.10;49.70;;;;;;5086412;27;45537;-67
2023/03/16 09:26:17;;;;;;;1.10;0.93;;;11.10;49.70;;;;;;5086699;27;45347;-65
2023/03/16 09:28:45;;;;;;;1.40;0.90;;;11.20;49.70;;;;;;5086408;27;45466;-65
2023/03/16 09:31:16;;;;;;;1.00;0.90;;;11.20;49.70;;;;;;5086098;27;45356;-66
2023/03/16 09:33:43;;;;;;;2.57;1.00;;;11.20;49.70;;;;;;5086406;27;45319;-65
2023/03/16 09:36:12;;;;;;;1.30;0.90;;;11.20;50.30;;;;;;5086678;27;45346;-65
2023/03/16 09:38:39;;;;;;;1.30;1.00;;;11.20;49.70;;;;;;5086219;27;45700;-65
2023/03/16 09:41:10;;;;;;;2.40;1.10;;;11.20;49.70;;;;;;5085883;27;45266;-65
2023/03/16 09:43:58;;;;;;;1.43;0.83;;;11.30;49.70;;;;;;5086196;27;45789;-65
2023/03/16 09:46:27;;;;;;;1.30;0.90;;;11.30;49.70;;;;;;5086504;27;45404;-65
2023/03/16 09:48:54;;;;;;;0.90;0.90;;;11.30;49.80;;;;;;5086136;27;45364;-65
2023/03/16 09:51:23;;;;;;;0.77;0.77;;;11.40;49.80;;;;;;5085949;27;45379;-65
2023/03/16 09:53:52;;;;;;;1.13;0.80;;;11.40;49.80;;;;;;5086259;27;45298;-66
2023/03/16 09:56:25;;;;;;;1.20;1.10;;;11.40;49.80;;;;;;5086373;27;45437;-66
2023/03/16 09:58:51;;;;;;;1.03;0.80;;;11.40;49.80;;;;;;5086020;27;45259;-65
2023/03/16 10:01:23;;;;;;;0.80;0.80;;;11.50;49.90;;;;;;5085886;28;45386;-67
2023/03/16 10:03:59;;;;;;;1.20;0.80;;;11.50;49.90;;;;;;5085942;27;45296;-65
2023/03/16 10:06:26;;;;;;;2.33;0.97;;;11.50;49.80;;;;;;5086293;27;45233;-65
2023/03/16 10:08:55;;;;;;;1.17;1.07;;;11.50;50.40;;;;;;5086034;27;46402;-66
2023/03/16 10:11:29;;;;;;;2.17;1.00;;;11.60;49.90;;;;;;5085496;27;45335;-65
2023/03/16 10:13:58;;;;;;;0.90;0.87;;;11.60;49.90;;;;;;5085896;27;45330;-67
2023/03/16 10:16:28;;;;;;;2.10;1.10;;;11.60;49.90;;;;;;5086122;27;45416;-65
2023/03/16 10:18:58;;;;;;;1.20;1.10;;;11.70;49.90;;;;;;5085585;28;46316;-65
2023/03/16 10:21:26;;;;;;;1.17;1.07;;;11.70;49.90;;;;;;5084397;27;45261;-65
2023/03/16 10:23:53;;;;;;;1.30;1.20;;;11.70;49.80;;;;;;5085569;27;45279;-65
2023/03/16 10:26:22;;;;;;;0.93;0.83;;;11.70;49.80;;;;;;5085947;27;45757;-65
2023/03/16 10:28:51;;;;;;;1.20;0.80;;;11.70;49.90;;;;;;5085507;27;45687;-66
2023/03/16 10:31:20;;;;;;;0.70;0.70;;;11.80;50.50;;;;;;5085161;27;45303;-65
2023/03/16 10:33:47;;;;;;;1.13;0.80;;;11.80;49.90;;;;;;5085546;27;45273;-66
2023/03/16 10:36:15;;;;;;;0.80;0.80;;;11.80;49.90;;;;;;5085737;27;45414;-64
2023/03/16 10:38:45;;;;;;;1.20;1.10;;;11.90;49.90;;;;;;5085323;27;45350;-67
2023/03/16 10:41:21;;;;;;;3.50;1.10;;;11.90;49.80;;;;;;5085107;27;45333;-67
2023/03/16 10:43:51;;;;;;;2.80;0.80;;;12.00;49.80;;;;;;5085055;28;45337;-64
2023/03/16 10:46:18;;;;;;;1.53;1.10;;;12.00;49.70;;;;;;5085734;27;45489;-66
2023/03/16 10:48:53;;;;;;;0.73;0.73;;;12.10;49.60;;;;;;5085216;27;45248;-66
2023/03/16 10:51:22;;;;;;;1.53;0.83;;;12.10;49.60;;;;;;5084899;27;45307;-67
2023/03/16 10:53:49;;;;;;;1.63;0.90;;;12.20;49.50;;;;;;5085411;28;45245;-66
2023/03/16 10:56:21;;;;;;;0.90;0.83;;;12.20;49.50;;;;;;5085425;27;45521;-66
2023/03/16 10:58:48;;;;;;;1.00;0.90;;;12.30;49.50;;;;;;5085050;27;46394;-67
2023/03/16 11:01:19;;;;;;;0.83;0.83;;;12.30;49.40;;;;;;5084892;28;45351;-66
2023/03/16 11:03:49;;;;;;;2.67;0.90;;;12.40;49.40;;;;;;5085344;27;45315;-66
2023/03/16 11:06:20;;;;;;;1.03;0.93;;;12.40;49.40;;;;;;5085590;27;45352;-65
2023/03/16 11:08:47;;;;;;;1.83;0.70;;;12.50;49.40;;;;;;5085022;27;46666;-65
2023/03/16 11:11:16;;;;;;;3.33;1.10;;;12.50;49.30;;;;;;5084918;27;45375;-64
2023/03/16 11:13:44;;;;;;;1.40;0.90;;;12.60;49.20;;;;;;5085070;27;45153;-65
2023/03/16 11:16:21;;;;;;;0.90;0.90;;;12.70;49.30;;;;;;5085299;27;45542;-65
2023/03/16 11:18:50;;;;;;;0.90;0.90;;;12.80;49.20;;;;;;5084804;27;46990;-65
2023/03/16 11:21:19;;;;;;;2.23;1.07;;;12.80;49.20;;;;;;5084706;27;45427;-66
2023/03/16 11:23:48;;;;;;;2.10;0.87;;;12.90;49.20;;;;;;5084763;27;45272;-67
2023/03/16 11:26:18;;;;;;;0.67;0.67;;;13.00;49.20;;;;;;5085097;27;45178;-67
2023/03/16 11:28:47;;;;;;;0.70;0.70;;;13.00;49.30;;;;;;5084854;27;47611;-66
2023/03/16 11:31:20;;;;;;;1.70;0.90;;;13.10;49.10;;;;;;5084902;27;45442;-66
2023/03/16 11:33:47;;;;;;;2.10;0.70;;;13.20;49.10;;;;;;5088255;27;45557;-67
2023/03/16 11:36:26;;;;;;;0.70;0.70;;;13.30;49.00;;;;;;5088440;27;45225;-66
2023/03/16 11:38:57;;;;;;;0.80;0.67;;;13.30;48.90;;;;;;5088141;27;47432;-69
2023/03/16 11:41:28;;;;;;;1.53;0.80;;;13.40;48.80;;;;;;5087966;27;45310;-68
2023/03/16 11:43:56;;;;;;;0.93;0.90;;;13.40;48.60;;;;;;5088183;27;45382;-68
2023/03/16 11:46:25;;;;;;;0.83;0.80;;;13.50;48.60;;;;;;5088564;27;45415;-68
2023/03/16 11:49:08;;;;;;;1.40;0.90;;;13.60;48.60;;;;;;5087913;27;45389;-68
2023/03/16 11:51:38;;;;;;;1.73;1.00;;;13.60;48.40;;;;;;5087765;27;45249;-65
2023/03/16 11:54:13;;;;;;;1.23;1.07;;;13.70;48.40;;;;;;5088254;27;45271;-66
2023/03/16 11:56:42;;;;;;;0.80;0.80;;;13.80;48.30;;;;;;5088316;27;45631;-67
2023/03/16 11:59:27;;;;;;;1.13;0.90;;;13.80;48.10;;;;;;5087731;27;45358;-67
2023/03/16 12:02:01;;;;;;;1.40;0.70;;;13.90;48.10;;;;;;5087642;27;45317;-67
2023/03/16 12:04:37;;;;;;;2.37;0.93;;;13.90;48.10;;;;;;5088036;27;45264;-68
2023/03/16 12:07:13;;;;;;;0.80;0.80;;;14.00;48.00;;;;;;5088112;27;45283;-68
2023/03/16 12:10:01;;;;;;;1.70;0.90;;;14.10;48.00;;;;;;5087602;27;46764;-68
2023/03/16 12:12:41;;;;;;;1.33;0.87;;;14.20;48.00;;;;;;5087262;27;45299;-68
2023/03/16 12:15:23;;;;;;;1.20;1.10;;;14.20;48.00;;;;;;5087904;27;45205;-67
2023/03/16 12:17:54;;;;;;;1.60;1.07;;;14.30;47.90;;;;;;5088024;27;45569;-68
2023/03/16 12:20:23;;;;;;;1.43;1.10;;;14.40;47.90;;;;;;5087544;27;45293;-68
2023/03/16 12:22:50;;;;;;;1.30;1.10;;;14.40;47.80;;;;;;5087557;27;45366;-68
2023/03/16 12:25:20;;;;;;;5.07;1.50;;;14.50;47.90;;;;;;5087420;27;45385;-67
2023/03/16 12:27:48;;;;;;;1.80;1.23;;;14.50;47.70;;;;;;5087818;27;45204;-67
2023/03/16 12:30:24;;;;;;;3.27;1.63;;;14.60;47.60;;;;;;5087354;28;45341;-68
2023/03/16 12:32:59;;;;;;;2.33;1.70;;;14.70;47.50;;;;;;5087056;27;45362;-68
2023/03/16 12:35:32;;;;;;;2.30;1.70;;;14.80;47.20;;;;;;5087601;27;45421;-67
2023/03/16 12:38:19;;;;;;;2.77;2.37;;;14.90;47.20;;;;;;5087659;27;45244;-66
2023/03/16 12:40:47;;;;;;;4.35;2.17;;;14.90;47.00;;;;;;5023767;28;46991;-67
2023/03/16 12:43:24;;;;;;;3.65;2.85;;;15.00;47.00;;;;;;5076115;27;45461;-68
2023/03/16 12:45:56;;;;;;;5.60;3.08;;;15.00;47.00;;;;;;5087590;27;45239;-67
2023/03/16 12:48:27;;;;;;;4.55;3.10;;;15.10;47.00;;;;;;5087393;27;45512;-67
2023/03/16 12:50:54;;;;;;;4.55;3.58;;;15.10;47.10;;;;;;5086984;27;46514;-67
2023/03/16 12:53:29;;;;;;;5.38;3.92;;;15.20;46.90;;;;;;5087138;27;45432;-67
2023/03/16 12:55:56;;;;;;;4.47;3.42;;;15.20;46.70;;;;;;5087304;27;45332;-66